Hakalau, Hawaii
Current Conditions -  °F | °C
As of 11:53 AM on Sunday 23 Nov 2014 (Local Time) from PHTO Reporting Station
Few Clouds Few Clouds  
Wind Chill: 80°   Ceiling: Unl
Heat Index: 83°   Visibility: 10mi
Dew Point: 68°   Wind: 12mph
Humidity: 67%   Direction: 120°ESE
Pressure: 29.96"   Gusts: NA
Location:  19.9°N, 155.13°W
Report Text: PHTO 232153Z 12010KT 10SM FEW180 27/20 A2996 RMK AO2 SLP145 T02670200 $
Loading
Personal Weather Stations






























Interactive Weather Map New forecast layout! Learn more

10-Day Weather Forecast

Advertisements
Track Severe Weather on mobile